Time;durP1;ratioP1;P1;durP2;ratioP2;P2;SDS_P1;SDS_P2;PMS_P1;PMS_P2;Temp;Humidity;BMP_temperature;BMP_pressure;BME280_temperature;BME280_humidity;BME280_pressure;Samples;Min_cycle;Max_cycle;Signal;HPM_P1;HPM_P2
2023/06/18 00:02:05;;;;;;;9.30;8.07;;;19.40;52.30;;;;;;4940783;29;20177;-76
2023/06/18 00:04:31;;;;;;;9.63;7.60;;;19.40;52.40;;;;;;4977165;28;20485;-76
2023/06/18 00:06:57;;;;;;;9.03;6.83;;;19.30;52.40;;;;;;4958295;29;20432;-73
2023/06/18 00:09:23;;;;;;;8.67;7.77;;;19.30;52.60;;;;;;4947621;28;20549;-76
2023/06/18 00:11:50;;;;;;;7.30;6.60;;;19.20;52.60;;;;;;4973592;28;20424;-76
2023/06/18 00:14:19;;;;;;;8.23;7.33;;;19.30;52.70;;;;;;4981884;28;20526;-74
2023/06/18 00:16:44;;;;;;;10.27;7.97;;;19.20;52.60;;;;;;4988689;28;20710;-74
2023/06/18 00:19:10;;;;;;;7.90;7.10;;;19.20;52.40;;;;;;4946622;29;20465;-73
2023/06/18 00:21:35;;;;;;;7.23;6.50;;;19.20;52.30;;;;;;4975728;28;20187;-72
2023/06/18 00:24:01;;;;;;;8.20;7.40;;;19.20;52.20;;;;;;4988008;28;20195;-75
2023/06/18 00:26:28;;;;;;;11.40;7.87;;;19.30;52.50;;;;;;4988242;28;20191;-76
2023/06/18 00:28:55;;;;;;;10.70;8.13;;;19.30;52.60;;;;;;4980468;28;20298;-74
2023/06/18 00:31:20;;;;;;;9.63;7.70;;;19.30;52.50;;;;;;4998084;28;20457;-75
2023/06/18 00:33:46;;;;;;;8.73;7.03;;;19.30;52.60;;;;;;4975942;28;20192;-76
2023/06/18 00:36:12;;;;;;;7.00;6.30;;;19.30;52.70;;;;;;4988896;28;20176;-73
2023/06/18 00:38:46;;;;;;;9.33;8.33;;;19.30;53.00;;;;;;4968139;28;20176;-74
2023/06/18 00:41:13;;;;;;;7.60;6.80;;;19.30;53.80;;;;;;4967614;28;20400;-75
2023/06/18 00:43:39;;;;;;;8.83;7.87;;;19.30;53.90;;;;;;4969113;28;20408;-73
2023/06/18 00:46:05;;;;;;;9.73;7.80;;;19.20;53.90;;;;;;4969371;28;20550;-72
2023/06/18 00:48:32;;;;;;;12.30;8.20;;;19.20;53.80;;;;;;4967559;28;20432;-75
2023/06/18 00:51:03;;;;;;;8.40;7.50;;;19.20;53.60;;;;;;4972053;28;20435;-72
2023/06/18 00:53:30;;;;;;;8.50;7.70;;;19.20;53.50;;;;;;4987774;28;20502;-77
2023/06/18 00:55:56;;;;;;;8.57;7.23;;;19.10;53.30;;;;;;4987772;28;20818;-75
2023/06/18 00:58:23;;;;;;;11.37;7.80;;;19.10;53.10;;;;;;4964734;28;20427;-77
2023/06/18 01:00:50;;;;;;;11.67;8.10;;;19.10;53.10;;;;;;4966133;28;20498;-75
2023/06/18 01:03:21;;;;;;;8.90;7.10;;;19.00;52.80;;;;;;4964788;29;20188;-74
2023/06/18 01:05:52;;;;;;;8.27;6.53;;;19.00;52.70;;;;;;4977300;28;20404;-72
2023/06/18 01:08:23;;;;;;;6.57;5.73;;;19.00;52.80;;;;;;4984652;28;20427;-73
2023/06/18 01:10:57;;;;;;;8.33;7.47;;;18.90;52.90;;;;;;4962642;28;20453;-74
2023/06/18 01:13:25;;;;;;;11.10;7.10;;;18.80;53.10;;;;;;4944594;29;20529;-76
2023/06/18 01:15:50;;;;;;;7.23;6.53;;;18.80;53.10;;;;;;4976153;28;20434;-77
2023/06/18 01:18:21;;;;;;;7.97;7.23;;;18.70;53.70;;;;;;4971603;28;20432;-76
2023/06/18 01:20:49;;;;;;;10.27;7.70;;;18.70;53.30;;;;;;4948838;29;20235;-77
2023/06/18 01:23:25;;;;;;;7.37;6.67;;;18.60;53.60;;;;;;4984915;28;20494;-77
2023/06/18 01:25:52;;;;;;;7.00;6.30;;;18.50;53.90;;;;;;4982691;28;20448;-74
2023/06/18 01:28:19;;;;;;;9.00;8.10;;;18.40;54.10;;;;;;4972365;28;20788;-75
2023/06/18 01:30:45;;;;;;;7.50;6.77;;;18.30;54.30;;;;;;4947140;29;20435;-74
2023/06/18 01:33:12;;;;;;;10.50;6.70;;;18.20;54.40;;;;;;4964889;28;20413;-74
2023/06/18 01:35:38;;;;;;;5.83;5.20;;;18.20;54.60;;;;;;4965295;28;20209;-72
2023/06/18 01:38:19;;;;;;;7.60;5.60;;;18.10;54.80;;;;;;4964483;29;20775;-76
2023/06/18 01:40:51;;;;;;;6.20;5.60;;;18.00;55.00;;;;;;4978200;28;20218;-73
2023/06/18 01:43:42;;;;;;;5.47;4.97;;;18.00;55.20;;;;;;4983544;28;20417;-74
2023/06/18 01:46:11;;;;;;;6.20;5.07;;;18.00;55.40;;;;;;4982570;28;20429;-72
2023/06/18 01:48:44;;;;;;;5.17;4.67;;;18.00;55.60;;;;;;4979099;28;20432;-72
2023/06/18 01:51:11;;;;;;;4.97;4.37;;;17.90;55.70;;;;;;4963962;28;20430;-72
2023/06/18 01:53:37;;;;;;;4.53;4.10;;;17.90;56.00;;;;;;4963161;29;20472;-72
2023/06/18 01:56:09;;;;;;;4.37;3.90;;;17.90;56.00;;;;;;4962357;28;20425;-71
2023/06/18 01:58:36;;;;;;;6.87;5.27;;;17.90;55.90;;;;;;4947104;28;20449;-72
2023/06/18 02:01:02;;;;;;;5.83;5.33;;;17.80;55.90;;;;;;4984414;28;20487;-72
2023/06/18 02:03:28;;;;;;;5.07;4.57;;;17.80;55.90;;;;;;4983272;28;20557;-70
2023/06/18 02:05:54;;;;;;;4.80;4.23;;;17.80;55.90;;;;;;4951149;29;20513;-72
2023/06/18 02:08:20;;;;;;;5.17;4.67;;;17.70;56.00;;;;;;4955664;28;20484;-72
2023/06/18 02:10:46;;;;;;;6.20;5.47;;;17.70;56.10;;;;;;4969301;28;20527;-72
2023/06/18 02:13:12;;;;;;;5.53;4.67;;;17.70;56.80;;;;;;4986819;28;20409;-70
2023/06/18 02:15:38;;;;;;;7.37;6.13;;;17.70;56.40;;;;;;4970904;28;20423;-73
2023/06/18 02:18:05;;;;;;;5.13;4.47;;;17.70;56.60;;;;;;4969369;29;20224;-73
2023/06/18 02:20:30;;;;;;;5.40;4.90;;;17.70;56.70;;;;;;4970058;28;20264;-71
2023/06/18 02:22:57;;;;;;;6.00;5.40;;;17.60;56.80;;;;;;4986911;28;20410;-73
2023/06/18 02:25:28;;;;;;;7.00;5.60;;;17.60;57.00;;;;;;4986600;28;20180;-71
2023/06/18 02:27:57;;;;;;;6.17;4.63;;;17.60;57.20;;;;;;4975966;28;20422;-71
2023/06/18 02:30:25;;;;;;;6.73;5.27;;;17.60;57.40;;;;;;4967048;29;20433;-72
2023/06/18 02:32:52;;;;;;;6.30;5.47;;;17.60;57.80;;;;;;4948363;29;20754;-72
2023/06/18 02:35:18;;;;;;;5.90;5.20;;;17.50;58.00;;;;;;4980794;28;20428;-72
2023/06/18 02:37:44;;;;;;;6.50;5.50;;;17.50;58.30;;;;;;4973930;28;20428;-73
2023/06/18 02:40:13;;;;;;;6.00;5.40;;;17.50;58.90;;;;;;4982509;28;20712;-70
2023/06/18 02:42:46;;;;;;;5.37;4.87;;;17.40;59.10;;;;;;4971639;28;20436;-74
2023/06/18 02:45:14;;;;;;;7.30;6.57;;;17.40;59.40;;;;;;4971220;29;20482;-71
2023/06/18 02:47:40;;;;;;;7.33;6.60;;;17.30;59.60;;;;;;4967565;28;20420;-72
2023/06/18 02:50:07;;;;;;;7.23;6.27;;;17.30;59.80;;;;;;4968573;28;20456;-73
2023/06/18 02:52:32;;;;;;;6.57;5.80;;;17.30;60.40;;;;;;4965298;29;20188;-72
2023/06/18 02:54:58;;;;;;;6.70;5.40;;;17.30;61.20;;;;;;4966276;28;20834;-71
2023/06/18 02:57:23;;;;;;;7.00;5.83;;;17.30;61.60;;;;;;4979291;28;20338;-71
2023/06/18 02:59:49;;;;;;;7.93;7.07;;;17.20;61.90;;;;;;4965907;28;20213;-72
2023/06/18 03:02:16;;;;;;;8.67;6.97;;;17.20;62.20;;;;;;4964864;29;20245;-71
2023/06/18 03:04:41;;;;;;;7.07;6.37;;;17.10;62.40;;;;;;4976870;28;20255;-70
2023/06/18 03:07:07;;;;;;;5.80;5.20;;;17.10;62.40;;;;;;4985017;28;20416;-72
2023/06/18 03:09:32;;;;;;;6.10;5.50;;;17.10;62.50;;;;;;4963802;28;20209;-71
2023/06/18 03:11:59;;;;;;;8.07;6.47;;;17.10;62.50;;;;;;4953115;29;20232;-70
2023/06/18 03:14:25;;;;;;;6.50;5.90;;;17.10;62.60;;;;;;4950021;29;20488;-71
2023/06/18 03:16:51;;;;;;;7.40;6.60;;;17.00;62.50;;;;;;4953159;28;20217;-72
2023/06/18 03:19:18;;;;;;;7.90;7.10;;;17.00;62.90;;;;;;4963235;29;20544;-73
2023/06/18 03:21:44;;;;;;;9.70;7.40;;;17.00;63.50;;;;;;4950902;29;20426;-72
2023/06/18 03:24:11;;;;;;;7.37;6.57;;;17.10;64.50;;;;;;4955042;29;20766;-72
2023/06/18 03:26:37;;;;;;;6.70;6.00;;;17.00;64.50;;;;;;4948587;28;20304;-71
2023/06/18 03:29:03;;;;;;;6.83;6.13;;;17.00;64.70;;;;;;4953325;28;20452;-72
2023/06/18 03:31:31;;;;;;;6.90;6.30;;;17.00;64.70;;;;;;4979106;28;20413;-71
2023/06/18 03:34:02;;;;;;;6.80;6.10;;;17.00;64.60;;;;;;4965338;28;20424;-74
2023/06/18 03:36:30;;;;;;;7.00;6.30;;;17.00;64.60;;;;;;4982790;28;20696;-72
2023/06/18 03:38:56;;;;;;;9.50;7.03;;;17.00;64.20;;;;;;4995967;28;20450;-71
2023/06/18 03:41:22;;;;;;;6.13;5.53;;;17.00;63.40;;;;;;4965078;28;20413;-72
2023/06/18 03:43:48;;;;;;;6.00;5.40;;;17.00;63.90;;;;;;4958190;29;20509;-73
2023/06/18 03:46:14;;;;;;;7.00;6.27;;;17.00;62.60;;;;;;4944823;29;20406;-72
2023/06/18 03:48:42;;;;;;;8.10;7.13;;;17.10;62.10;;;;;;4948796;29;20202;-71
2023/06/18 03:51:08;;;;;;;7.17;6.43;;;17.10;61.30;;;;;;4978664;28;20876;-72
2023/06/18 03:53:38;;;;;;;6.83;6.00;;;17.10;60.80;;;;;;4963454;28;20422;-71
2023/06/18 03:56:04;;;;;;;6.97;6.20;;;17.10;60.30;;;;;;4980316;28;20420;-71
2023/06/18 03:58:30;;;;;;;7.30;6.30;;;17.10;60.00;;;;;;4974057;28;20525;-73
2023/06/18 04:00:56;;;;;;;6.17;5.57;;;17.20;59.50;;;;;;4961866;28;20479;-72
2023/06/18 04:03:23;;;;;;;8.07;7.10;;;17.20;59.20;;;;;;4949456;28;20424;-70
2023/06/18 04:05:49;;;;;;;7.33;6.63;;;17.30;58.90;;;;;;4961824;28;20537;-71
2023/06/18 04:08:19;;;;;;;5.50;5.00;;;17.30;58.80;;;;;;4977236;28;20409;-72
2023/06/18 04:10:46;;;;;;;5.73;4.90;;;17.30;58.70;;;;;;4974713;28;20444;-71
2023/06/18 04:13:19;;;;;;;6.30;5.13;;;17.40;58.60;;;;;;4976528;28;20424;-72
2023/06/18 04:15:45;;;;;;;6.57;5.47;;;17.50;58.50;;;;;;4960136;28;20417;-71
2023/06/18 04:18:13;;;;;;;6.50;5.70;;;17.60;58.40;;;;;;4949583;28;20515;-70
2023/06/18 04:20:39;;;;;;;7.60;5.93;;;17.60;58.20;;;;;;4957831;29;20471;-72
2023/06/18 04:23:06;;;;;;;6.23;5.17;;;17.70;58.10;;;;;;4956902;28;20420;-72
2023/06/18 04:25:32;;;;;;;6.30;5.70;;;17.80;57.70;;;;;;4963138;28;20408;-71
2023/06/18 04:27:59;;;;;;;6.43;5.83;;;17.90;57.40;;;;;;4960590;28;20416;-72
2023/06/18 04:30:25;;;;;;;8.37;7.00;;;18.00;57.20;;;;;;4957096;29;20441;-73
2023/06/18 04:32:52;;;;;;;7.37;6.67;;;18.10;57.20;;;;;;4943426;29;20417;-70
2023/06/18 04:35:19;;;;;;;6.80;6.03;;;18.10;56.80;;;;;;4958522;28;20423;-72
2023/06/18 04:37:45;;;;;;;6.70;6.00;;;18.20;56.60;;;;;;4979218;28;20449;-72
2023/06/18 04:40:12;;;;;;;8.07;7.07;;;18.30;56.20;;;;;;4977416;28;20513;-72
2023/06/18 04:42:39;;;;;;;8.37;6.77;;;18.40;55.70;;;;;;4962219;28;20444;-72
2023/06/18 04:45:09;;;;;;;9.10;7.77;;;18.50;55.30;;;;;;4977039;28;20436;-70
2023/06/18 04:47:35;;;;;;;7.90;7.00;;;18.70;54.40;;;;;;4960657;28;20414;-71
2023/06/18 04:50:02;;;;;;;8.57;6.53;;;19.00;54.00;;;;;;4955848;29;20218;-73
2023/06/18 04:52:30;;;;;;;8.40;6.63;;;19.20;52.70;;;;;;4959350;28;20870;-71
2023/06/18 04:54:56;;;;;;;7.50;6.80;;;19.50;52.00;;;;;;4975576;28;20845;-71
2023/06/18 04:57:23;;;;;;;7.43;6.70;;;19.70;51.70;;;;;;4960129;28;20732;-71
2023/06/18 04:59:49;;;;;;;7.30;6.57;;;20.00;50.90;;;;;;4957920;28;20543;-71
2023/06/18 05:02:14;;;;;;;6.80;6.10;;;20.30;50.60;;;;;;4953660;28;20511;-70
2023/06/18 05:04:41;;;;;;;7.43;6.70;;;20.50;49.60;;;;;;4949032;29;20188;-71
2023/06/18 05:07:07;;;;;;;6.73;6.13;;;20.70;49.50;;;;;;4940615;28;20936;-72
2023/06/18 05:09:35;;;;;;;7.70;5.93;;;21.10;49.20;;;;;;4959350;28;20196;-72
2023/06/18 05:12:00;;;;;;;6.90;6.20;;;21.30;48.30;;;;;;4958056;28;20507;-71
2023/06/18 05:14:27;;;;;;;6.63;6.00;;;21.60;47.90;;;;;;4949319;28;20236;-71
2023/06/18 05:16:53;;;;;;;6.13;5.43;;;21.80;47.40;;;;;;4977208;28;20404;-72
2023/06/18 05:19:19;;;;;;;6.40;5.80;;;22.00;46.90;;;;;;4957033;28;20220;-71
2023/06/18 05:21:44;;;;;;;5.80;5.30;;;22.10;46.50;;;;;;4959795;28;20447;-71
2023/06/18 05:24:11;;;;;;;6.53;5.57;;;22.10;46.30;;;;;;4959404;28;20537;-72
2023/06/18 05:26:36;;;;;;;7.87;7.17;;;22.20;46.30;;;;;;4965798;28;20554;-72
2023/06/18 05:29:02;;;;;;;7.17;6.47;;;22.10;45.90;;;;;;4974249;28;20200;-71
2023/06/18 05:31:28;;;;;;;6.77;6.17;;;22.20;45.50;;;;;;4958112;28;20617;-71
2023/06/18 05:33:57;;;;;;;6.50;5.90;;;22.20;45.60;;;;;;4970510;28;20587;-73
2023/06/18 05:36:22;;;;;;;10.87;7.20;;;22.10;45.60;;;;;;4954629;28;20432;-72
2023/06/18 05:38:50;;;;;;;7.83;6.30;;;22.00;45.60;;;;;;4959198;28;20188;-71
2023/06/18 05:41:16;;;;;;;6.77;6.13;;;22.20;45.80;;;;;;4943535;29;20235;-73
2023/06/18 05:43:41;;;;;;;7.03;6.33;;;22.30;45.50;;;;;;4940876;29;20875;-71
2023/06/18 05:46:07;;;;;;;7.30;6.30;;;22.40;45.30;;;;;;4958554;28;20192;-71
2023/06/18 05:48:34;;;;;;;7.30;6.37;;;22.60;45.20;;;;;;4951281;28;20205;-75
2023/06/18 05:51:20;;;;;;;7.33;6.00;;;22.70;44.80;;;;;;4957756;29;20472;-72
2023/06/18 05:53:45;;;;;;;8.67;6.73;;;22.90;44.50;;;;;;4965890;28;20752;-72
2023/06/18 05:56:12;;;;;;;8.77;6.63;;;23.10;43.90;;;;;;4958998;28;20564;-73
2023/06/18 05:58:38;;;;;;;9.23;5.93;;;23.30;43.70;;;;;;4975999;28;20482;-71
2023/06/18 06:01:05;;;;;;;8.53;7.63;;;23.20;43.40;;;;;;4961359;28;20572;-72
2023/06/18 06:03:31;;;;;;;7.30;6.70;;;23.30;42.90;;;;;;4969843;28;20431;-71
2023/06/18 06:05:57;;;;;;;7.40;6.70;;;23.10;42.70;;;;;;4940588;29;20189;-71
2023/06/18 06:08:22;;;;;;;7.47;6.77;;;22.80;42.70;;;;;;4944124;29;20517;-71
2023/06/18 06:10:53;;;;;;;8.90;6.60;;;22.80;43.00;;;;;;4941078;29;20197;-75
2023/06/18 06:13:20;;;;;;;6.27;5.67;;;22.90;43.20;;;;;;4950435;28;20458;-72
2023/06/18 06:15:47;;;;;;;6.43;5.60;;;22.90;43.00;;;;;;4960709;28;20407;-72
2023/06/18 06:18:12;;;;;;;7.53;6.83;;;23.10;43.20;;;;;;4957681;28;20429;-75
2023/06/18 06:20:38;;;;;;;7.93;7.10;;;23.30;43.10;;;;;;4956377;28;20224;-72
2023/06/18 06:23:05;;;;;;;9.30;6.83;;;23.30;42.80;;;;;;4965060;28;20207;-72
2023/06/18 06:25:30;;;;;;;7.60;6.90;;;23.40;42.90;;;;;;4975080;28;20686;-73
2023/06/18 06:27:57;;;;;;;7.00;5.73;;;23.30;42.70;;;;;;4973977;28;20234;-71
2023/06/18 06:30:23;;;;;;;6.83;6.17;;;23.40;43.00;;;;;;4975549;28;20440;-72
2023/06/18 06:32:52;;;;;;;7.77;6.83;;;23.60;42.80;;;;;;4958947;28;20420;-72
2023/06/18 06:35:20;;;;;;;9.53;6.00;;;23.70;42.10;;;;;;4958661;28;20416;-72
2023/06/18 06:37:46;;;;;;;6.93;5.87;;;23.80;42.00;;;;;;4958522;28;20855;-71
2023/06/18 06:40:13;;;;;;;8.27;7.47;;;24.00;42.00;;;;;;4957868;28;20550;-74
2023/06/18 06:42:40;;;;;;;8.97;6.90;;;24.10;41.70;;;;;;4969170;28;20395;-74
2023/06/18 06:45:18;;;;;;;7.03;6.43;;;24.40;41.50;;;;;;4959950;28;20438;-72
2023/06/18 06:48:03;;;;;;;6.57;5.90;;;24.60;41.20;;;;;;4943504;28;20425;-71
2023/06/18 06:50:37;;;;;;;7.27;6.67;;;24.70;41.10;;;;;;4962359;28;20486;-72
2023/06/18 06:53:11;;;;;;;7.13;6.47;;;24.90;40.80;;;;;;4962158;28;20475;-72
2023/06/18 06:55:37;;;;;;;7.77;6.70;;;24.70;40.20;;;;;;4978659;28;20404;-72
2023/06/18 06:58:04;;;;;;;6.40;5.80;;;24.50;40.80;;;;;;4963857;28;20470;-72
2023/06/18 07:00:29;;;;;;;7.13;5.50;;;24.60;41.20;;;;;;4960959;28;20452;-71
2023/06/18 07:02:55;;;;;;;6.60;6.00;;;24.60;41.50;;;;;;4976864;28;20184;-71
2023/06/18 07:05:20;;;;;;;6.53;5.93;;;24.90;40.80;;;;;;4959001;28;20242;-72
2023/06/18 07:07:46;;;;;;;7.07;5.90;;;25.10;40.10;;;;;;4979136;28;20180;-73
2023/06/18 07:10:12;;;;;;;7.87;7.17;;;25.30;39.60;;;;;;4977913;28;20256;-72
2023/06/18 07:12:37;;;;;;;6.40;5.90;;;25.40;38.90;;;;;;4964647;28;20240;-74
2023/06/18 07:15:03;;;;;;;6.60;5.70;;;25.60;38.10;;;;;;4972800;28;20488;-72
2023/06/18 07:17:29;;;;;;;6.57;5.97;;;25.70;38.40;;;;;;4971317;28;20196;-71
2023/06/18 07:19:55;;;;;;;7.80;7.00;;;25.90;38.50;;;;;;4970745;28;20820;-73
2023/06/18 07:22:20;;;;;;;7.90;7.03;;;26.10;38.40;;;;;;4978444;28;20201;-73
2023/06/18 07:24:46;;;;;;;7.30;6.60;;;26.30;37.80;;;;;;4978967;28;20173;-72
2023/06/18 07:27:12;;;;;;;6.63;6.03;;;26.40;37.30;;;;;;4978512;28;20295;-72
2023/06/18 07:29:37;;;;;;;6.87;6.17;;;26.70;36.80;;;;;;4978436;28;20228;-72
2023/06/18 07:32:03;;;;;;;6.23;5.70;;;26.60;36.50;;;;;;4979213;28;20192;-74
2023/06/18 07:34:28;;;;;;;7.03;5.23;;;26.60;36.80;;;;;;4973646;28;20239;-73
2023/06/18 07:36:54;;;;;;;6.27;5.50;;;26.50;37.00;;;;;;4978312;28;20203;-73
2023/06/18 07:39:20;;;;;;;10.40;6.70;;;26.60;37.20;;;;;;4971771;28;20286;-72
2023/06/18 07:41:47;;;;;;;6.00;5.40;;;26.60;37.20;;;;;;4959315;29;20279;-72
2023/06/18 07:44:14;;;;;;;6.80;5.90;;;26.60;37.20;;;;;;4975447;28;20510;-72
2023/06/18 07:46:42;;;;;;;8.37;5.57;;;26.60;37.00;;;;;;4979625;28;20439;-73
2023/06/18 07:49:08;;;;;;;6.77;6.17;;;26.40;37.50;;;;;;4974691;28;20590;-76
2023/06/18 07:51:33;;;;;;;8.53;5.97;;;26.30;37.60;;;;;;4967008;28;20830;-73
2023/06/18 07:53:59;;;;;;;15.83;6.67;;;26.30;37.70;;;;;;4974298;28;20428;-72
2023/06/18 07:56:26;;;;;;;6.20;5.33;;;26.20;38.00;;;;;;4958775;29;20459;-72
2023/06/18 07:58:52;;;;;;;7.10;6.40;;;26.10;38.20;;;;;;4957915;28;20196;-73
2023/06/18 08:01:18;;;;;;;6.83;6.13;;;26.00;38.40;;;;;;4975016;28;20428;-73
2023/06/18 08:03:44;;;;;;;8.10;6.17;;;25.80;38.60;;;;;;4964205;28;20857;-75
2023/06/18 08:06:10;;;;;;;7.57;6.37;;;25.70;39.00;;;;;;4964941;29;20432;-72
2023/06/18 08:08:35;;;;;;;7.60;6.80;;;25.60;39.30;;;;;;4979600;28;20183;-72
2023/06/18 08:11:01;;;;;;;5.80;5.30;;;25.60;39.10;;;;;;4966704;29;20204;-75
2023/06/18 08:13:29;;;;;;;5.20;4.80;;;25.70;39.40;;;;;;4970362;28;20177;-75
2023/06/18 08:15:54;;;;;;;6.63;6.03;;;25.90;38.90;;;;;;4935729;29;20197;-72
2023/06/18 08:18:20;;;;;;;6.10;5.50;;;26.10;38.50;;;;;;4950214;29;20436;-72
2023/06/18 08:20:45;;;;;;;6.30;5.70;;;26.20;38.30;;;;;;4968468;28;20311;-73
2023/06/18 08:23:15;;;;;;;7.20;6.60;;;26.40;37.60;;;;;;4984814;28;20169;-77
2023/06/18 08:25:40;;;;;;;6.83;6.23;;;26.60;37.50;;;;;;4969399;28;20199;-73
2023/06/18 08:28:06;;;;;;;7.40;6.70;;;26.70;36.90;;;;;;4983845;28;20412;-74
2023/06/18 08:30:32;;;;;;;8.87;5.77;;;26.80;36.80;;;;;;4952105;29;20213;-74
2023/06/18 08:32:58;;;;;;;5.90;5.30;;;27.00;36.30;;;;;;4952896;28;20199;-73
2023/06/18 08:35:23;;;;;;;5.60;5.00;;;27.10;36.50;;;;;;4949300;29;20177;-74
2023/06/18 08:37:49;;;;;;;6.90;6.20;;;27.10;36.50;;;;;;4949624;29;20264;-72
2023/06/18 08:40:15;;;;;;;6.60;5.97;;;27.30;36.10;;;;;;4967505;28;20601;-73
2023/06/18 08:42:40;;;;;;;6.50;5.90;;;27.50;35.90;;;;;;4969025;29;20631;-75
2023/06/18 08:45:07;;;;;;;5.93;5.43;;;27.60;35.70;;;;;;4933979;29;20173;-73
2023/06/18 08:47:34;;;;;;;6.90;5.90;;;27.60;35.90;;;;;;4952973;29;20173;-75
2023/06/18 08:50:00;;;;;;;7.47;6.53;;;27.80;35.70;;;;;;4984474;28;20534;-74
2023/06/18 08:52:29;;;;;;;6.53;5.93;;;27.80;35.00;;;;;;4986773;28;20427;-75
2023/06/18 08:55:02;;;;;;;6.97;6.37;;;27.90;34.70;;;;;;4971533;28;20448;-74
2023/06/18 08:57:34;;;;;;;6.23;5.47;;;27.90;34.60;;;;;;4966521;28;20468;-73
2023/06/18 09:00:03;;;;;;;5.10;4.63;;;27.90;34.40;;;;;;4962180;28;20471;-74
2023/06/18 09:02:29;;;;;;;9.83;6.00;;;28.00;34.20;;;;;;4951409;29;20433;-75
2023/06/18 09:04:56;;;;;;;7.20;6.60;;;28.20;33.70;;;;;;4954603;28;20704;-77
2023/06/18 09:07:23;;;;;;;6.30;5.80;;;28.30;33.70;;;;;;4953955;28;20426;-75
2023/06/18 09:09:49;;;;;;;6.17;5.57;;;28.30;33.10;;;;;;4984325;28;20441;-75
2023/06/18 09:12:16;;;;;;;6.30;5.70;;;28.30;32.50;;;;;;4952058;28;20410;-74
2023/06/18 09:14:42;;;;;;;6.13;5.30;;;28.30;32.50;;;;;;4985691;28;20723;-75
2023/06/18 09:17:08;;;;;;;6.10;5.50;;;28.20;32.20;;;;;;4969097;28;20192;-74
2023/06/18 09:19:34;;;;;;;5.60;5.10;;;28.20;32.60;;;;;;4957052;28;20219;-73
2023/06/18 09:22:15;;;;;;;5.27;4.87;;;28.30;32.30;;;;;;4966545;28;20572;-73
2023/06/18 09:24:43;;;;;;;4.00;3.70;;;28.50;32.00;;;;;;4953756;28;20439;-73
2023/06/18 09:27:09;;;;;;;6.73;6.10;;;28.80;31.40;;;;;;4984207;28;20420;-75
2023/06/18 09:29:40;;;;;;;5.70;5.20;;;28.80;30.70;;;;;;4981702;28;20495;-77
2023/06/18 09:32:10;;;;;;;8.00;5.73;;;29.00;30.60;;;;;;4972552;28;20208;-72
2023/06/18 09:34:36;;;;;;;6.17;5.63;;;28.90;30.50;;;;;;4985794;28;20440;-76
2023/06/18 09:37:03;;;;;;;6.70;6.10;;;28.90;30.30;;;;;;4987676;28;20726;-73
2023/06/18 09:39:30;;;;;;;5.07;4.60;;;28.90;30.40;;;;;;4969518;28;20523;-75
2023/06/18 09:41:55;;;;;;;4.93;4.40;;;28.90;29.80;;;;;;4969603;28;20419;-77
2023/06/18 09:44:22;;;;;;;5.90;5.30;;;28.90;29.50;;;;;;4988849;28;20383;-75
2023/06/18 09:46:56;;;;;;;4.80;4.40;;;28.80;29.40;;;;;;4956292;28;20188;-76
2023/06/18 09:49:23;;;;;;;6.97;5.53;;;28.80;29.80;;;;;;4962835;28;20451;-75
2023/06/18 09:51:51;;;;;;;5.77;5.17;;;28.90;29.70;;;;;;4971481;28;20883;-75
2023/06/18 09:54:18;;;;;;;6.33;5.83;;;28.80;29.80;;;;;;4953822;28;20503;-76
2023/06/18 09:57:15;;;;;;;6.90;5.57;;;28.80;30.10;;;;;;4965330;28;20467;-74
2023/06/18 09:59:41;;;;;;;6.47;5.30;;;28.80;30.40;;;;;;4936527;29;20455;-76
2023/06/18 10:02:12;;;;;;;6.67;6.00;;;28.80;30.70;;;;;;4914608;29;20426;-76
2023/06/18 10:04:38;;;;;;;6.67;5.90;;;28.80;31.00;;;;;;4939931;29;20448;-74
2023/06/18 10:07:06;;;;;;;6.40;5.83;;;28.80;31.00;;;;;;4964106;29;20428;-76
2023/06/18 10:09:35;;;;;;;5.70;5.20;;;29.00;31.20;;;;;;4948083;29;20643;-72
2023/06/18 10:12:03;;;;;;;7.03;6.33;;;29.20;30.90;;;;;;4966252;29;20405;-75
2023/06/18 10:14:30;;;;;;;6.60;6.00;;;29.40;29.80;;;;;;4967138;29;20415;-75
2023/06/18 10:17:09;;;;;;;5.60;5.10;;;29.60;29.60;;;;;;4972349;29;20681;-76
2023/06/18 10:19:55;;;;;;;4.40;4.00;;;29.80;29.30;;;;;;4968537;29;20482;-75
2023/06/18 10:22:23;;;;;;;7.07;6.40;;;30.10;28.90;;;;;;4972789;28;20632;-74
2023/06/18 10:25:04;;;;;;;7.43;5.60;;;30.30;28.40;;;;;;4970617;29;20413;-75
2023/06/18 10:27:31;;;;;;;10.50;6.43;;;30.20;28.90;;;;;;4972933;29;20402;-77
2023/06/18 10:29:57;;;;;;;7.83;6.30;;;30.00;29.30;;;;;;4970667;29;20436;-77
2023/06/18 10:32:24;;;;;;;7.67;6.90;;;29.70;29.80;;;;;;4951604;29;20443;-73
2023/06/18 10:34:52;;;;;;;6.33;5.73;;;29.70;30.00;;;;;;4943719;29;20433;-73
2023/06/18 10:37:18;;;;;;;5.93;5.33;;;29.90;30.00;;;;;;4948119;29;20416;-73
2023/06/18 10:39:45;;;;;;;7.03;6.43;;;30.00;30.00;;;;;;4949218;29;20482;-73
2023/06/18 10:42:15;;;;;;;9.57;8.67;;;29.80;29.90;;;;;;4953652;29;20526;-75
2023/06/18 10:44:47;;;;;;;7.53;6.90;;;29.60;30.00;;;;;;4952990;29;20387;-74
2023/06/18 10:47:32;;;;;;;7.47;6.47;;;29.60;30.60;;;;;;4936772;29;20433;-75
2023/06/18 10:50:07;;;;;;;5.77;5.27;;;29.70;30.10;;;;;;4949874;29;20430;-75
2023/06/18 10:52:38;;;;;;;5.50;5.00;;;29.80;30.30;;;;;;4951544;29;20495;-75
2023/06/18 10:55:06;;;;;;;6.17;5.57;;;29.90;30.40;;;;;;4941733;29;20477;-77
2023/06/18 10:57:39;;;;;;;6.90;6.17;;;29.90;30.10;;;;;;4953122;29;20432;-78
2023/06/18 11:00:33;;;;;;;6.37;5.87;;;29.90;30.20;;;;;;4941104;29;20468;-79
2023/06/18 11:02:59;;;;;;;7.40;6.70;;;30.20;30.20;;;;;;4937900;29;20482;-75
2023/06/18 11:05:31;;;;;;;6.70;6.10;;;30.30;29.80;;;;;;4983080;28;20410;-76
2023/06/18 11:08:04;;;;;;;5.87;5.30;;;30.40;29.60;;;;;;4988496;28;20550;-73
2023/06/18 11:10:48;;;;;;;6.50;5.90;;;30.70;29.70;;;;;;4989036;28;20430;-74
2023/06/18 11:13:14;;;;;;;6.20;5.60;;;31.00;29.40;;;;;;4975554;28;20410;-75
2023/06/18 11:16:00;;;;;;;6.70;5.47;;;31.20;29.10;;;;;;4990063;28;20420;-74
2023/06/18 11:18:27;;;;;;;6.40;5.80;;;31.50;28.50;;;;;;4970572;28;20447;-74
2023/06/18 11:20:57;;;;;;;7.10;6.40;;;31.60;28.40;;;;;;4968010;29;20763;-74
2023/06/18 11:23:24;;;;;;;6.03;5.53;;;31.70;28.30;;;;;;4952247;29;20423;-74
2023/06/18 11:25:50;;;;;;;6.60;6.00;;;31.70;28.40;;;;;;4974482;28;20864;-74
2023/06/18 11:28:17;;;;;;;6.20;5.60;;;31.70;28.40;;;;;;4990262;28;20452;-73
2023/06/18 11:30:51;;;;;;;7.70;5.53;;;31.60;28.50;;;;;;4995503;28;20498;-77
2023/06/18 11:33:25;;;;;;;5.33;4.93;;;31.60;28.50;;;;;;4962306;28;20423;-75
2023/06/18 11:35:52;;;;;;;5.80;5.40;;;31.70;28.50;;;;;;4932478;29;20381;-77
2023/06/18 11:38:22;;;;;;;6.73;4.97;;;31.80;28.30;;;;;;4975473;28;20412;-74
2023/06/18 11:40:49;;;;;;;7.07;6.47;;;32.00;28.10;;;;;;4988476;28;20455;-73
2023/06/18 11:43:15;;;;;;;6.50;5.93;;;32.00;27.80;;;;;;4957333;29;20405;-73
2023/06/18 11:45:45;;;;;;;5.37;4.97;;;32.10;27.50;;;;;;4967543;29;20481;-74
2023/06/18 11:48:13;;;;;;;5.70;5.27;;;32.20;27.60;;;;;;4968209;28;20232;-76
2023/06/18 11:50:38;;;;;;;4.47;4.07;;;32.40;27.50;;;;;;4935614;29;20473;-77
2023/06/18 11:53:05;;;;;;;6.10;5.60;;;32.60;27.40;;;;;;4950428;29;20475;-75
2023/06/18 11:55:32;;;;;;;5.90;5.30;;;32.80;27.20;;;;;;4948216;29;20603;-76
2023/06/18 11:58:00;;;;;;;6.97;6.10;;;33.00;27.00;;;;;;4959619;29;20494;-77
2023/06/18 12:00:26;;;;;;;5.40;5.00;;;33.00;26.90;;;;;;4951984;29;20446;-74
2023/06/18 12:02:51;;;;;;;6.47;5.83;;;32.90;27.00;;;;;;4952650;29;20384;-75
2023/06/18 12:05:17;;;;;;;5.47;5.07;;;32.90;27.00;;;;;;4967174;29;20431;-74
2023/06/18 12:07:44;;;;;;;5.63;5.23;;;32.80;26.90;;;;;;4971207;29;20185;-74
2023/06/18 12:10:11;;;;;;;6.07;5.57;;;32.90;26.80;;;;;;4953278;29;20232;-76
2023/06/18 12:12:43;;;;;;;6.20;5.70;;;33.10;26.80;;;;;;4952639;29;20444;-76
2023/06/18 12:15:17;;;;;;;6.23;5.63;;;33.30;26.60;;;;;;4957191;29;20403;-75
2023/06/18 12:18:15;;;;;;;6.10;5.50;;;33.50;26.40;;;;;;4934679;29;20524;-75
2023/06/18 12:20:41;;;;;;;6.73;5.90;;;33.50;25.60;;;;;;4929486;29;20488;-75
2023/06/18 12:23:07;;;;;;;6.13;5.40;;;33.40;25.70;;;;;;4948915;29;20392;-77
2023/06/18 12:25:33;;;;;;;6.17;5.67;;;33.60;25.90;;;;;;4948926;29;20947;-77
2023/06/18 12:28:02;;;;;;;6.53;6.03;;;33.60;25.80;;;;;;4948009;29;20329;-76
2023/06/18 12:30:34;;;;;;;6.40;5.10;;;33.70;25.70;;;;;;4932183;29;20441;-75
2023/06/18 12:33:14;;;;;;;6.33;5.90;;;33.70;25.70;;;;;;4951101;29;20424;-77
2023/06/18 12:35:56;;;;;;;6.73;6.23;;;33.50;25.40;;;;;;4933909;29;20433;-73
2023/06/18 12:38:22;;;;;;;6.87;6.37;;;33.30;25.30;;;;;;4951774;29;20416;-73
2023/06/18 12:40:51;;;;;;;6.70;6.20;;;33.10;25.80;;;;;;4939910;29;20631;-73
2023/06/18 12:43:18;;;;;;;6.93;6.33;;;33.00;26.00;;;;;;4969865;29;20397;-74
2023/06/18 12:45:47;;;;;;;6.47;5.97;;;32.90;26.20;;;;;;4951478;29;20519;-75
2023/06/18 12:48:20;;;;;;;6.47;5.97;;;33.00;26.30;;;;;;4969493;29;20626;-78
2023/06/18 12:50:48;;;;;;;8.00;7.20;;;33.00;26.10;;;;;;4952484;29;20471;-76